sensor_id;sensor_type;location;lat;lon;timestamp;P1;durP1;ratioP1;P2;durP2;ratioP2
7933;SDS011;4012;48.896;9.192;2023-07-08T00:02:11;7.00;;;4.83;;
7933;SDS011;4012;48.896;9.192;2023-07-08T00:04:38;6.90;;;4.77;;
7933;SDS011;4012;48.896;9.192;2023-07-08T00:07:04;7.73;;;5.10;;
7933;SDS011;4012;48.896;9.192;2023-07-08T00:09:34;6.00;;;4.60;;
7933;SDS011;4012;48.896;9.192;2023-07-08T00:11:59;7.17;;;5.13;;
7933;SDS011;4012;48.896;9.192;2023-07-08T00:14:25;6.93;;;5.07;;
7933;SDS011;4012;48.896;9.192;2023-07-08T00:16:51;6.40;;;4.93;;
7933;SDS011;4012;48.896;9.192;2023-07-08T00:19:16;8.07;;;5.50;;
7933;SDS011;4012;48.896;9.192;2023-07-08T00:21:44;6.20;;;4.97;;
7933;SDS011;4012;48.896;9.192;2023-07-08T00:24:10;7.97;;;4.83;;
7933;SDS011;4012;48.896;9.192;2023-07-08T00:26:36;6.13;;;5.07;;
7933;SDS011;4012;48.896;9.192;2023-07-08T00:29:02;5.97;;;4.63;;
7933;SDS011;4012;48.896;9.192;2023-07-08T00:31:28;5.83;;;4.83;;
7933;SDS011;4012;48.896;9.192;2023-07-08T00:33:57;7.77;;;5.50;;
7933;SDS011;4012;48.896;9.192;2023-07-08T00:36:23;6.53;;;4.80;;
7933;SDS011;4012;48.896;9.192;2023-07-08T00:38:50;5.50;;;4.53;;
7933;SDS011;4012;48.896;9.192;2023-07-08T00:43:59;5.77;;;5.13;;
7933;SDS011;4012;48.896;9.192;2023-07-08T00:48:58;6.37;;;5.00;;
7933;SDS011;4012;48.896;9.192;2023-07-08T00:51:46;9.13;;;5.07;;
7933;SDS011;4012;48.896;9.192;2023-07-08T00:54:13;5.87;;;4.70;;
7933;SDS011;4012;48.896;9.192;2023-07-08T00:56:47;6.57;;;5.17;;
7933;SDS011;4012;48.896;9.192;2023-07-08T00:59:19;6.77;;;4.70;;
7933;SDS011;4012;48.896;9.192;2023-07-08T01:01:48;5.47;;;4.87;;
7933;SDS011;4012;48.896;9.192;2023-07-08T01:04:16;8.67;;;4.97;;
7933;SDS011;4012;48.896;9.192;2023-07-08T01:06:52;6.37;;;5.00;;
7933;SDS011;4012;48.896;9.192;2023-07-08T01:09:24;8.57;;;4.53;;
7933;SDS011;4012;48.896;9.192;2023-07-08T01:11:56;8.53;;;4.87;;
7933;SDS011;4012;48.896;9.192;2023-07-08T01:14:25;6.10;;;4.83;;
7933;SDS011;4012;48.896;9.192;2023-07-08T01:16:56;7.97;;;4.30;;
7933;SDS011;4012;48.896;9.192;2023-07-08T01:19:22;8.63;;;4.67;;
7933;SDS011;4012;48.896;9.192;2023-07-08T01:24:24;6.20;;;4.73;;
7933;SDS011;4012;48.896;9.192;2023-07-08T01:26:50;7.47;;;4.43;;
7933;SDS011;4012;48.896;9.192;2023-07-08T01:29:16;8.50;;;5.40;;
7933;SDS011;4012;48.896;9.192;2023-07-08T01:31:42;7.53;;;5.47;;
7933;SDS011;4012;48.896;9.192;2023-07-08T01:34:13;6.07;;;5.03;;
7933;SDS011;4012;48.896;9.192;2023-07-08T01:36:41;6.23;;;4.57;;
7933;SDS011;4012;48.896;9.192;2023-07-08T01:39:20;6.43;;;4.77;;
7933;SDS011;4012;48.896;9.192;2023-07-08T01:41:50;6.50;;;4.87;;
7933;SDS011;4012;48.896;9.192;2023-07-08T01:44:29;6.23;;;4.33;;
7933;SDS011;4012;48.896;9.192;2023-07-08T01:46:57;7.00;;;4.67;;
7933;SDS011;4012;48.896;9.192;2023-07-08T01:49:27;7.13;;;4.73;;
7933;SDS011;4012;48.896;9.192;2023-07-08T01:51:53;6.67;;;4.67;;
7933;SDS011;4012;48.896;9.192;2023-07-08T01:54:20;9.90;;;5.20;;
7933;SDS011;4012;48.896;9.192;2023-07-08T01:56:46;5.43;;;4.60;;
7933;SDS011;4012;48.896;9.192;2023-07-08T01:59:11;5.33;;;4.57;;
7933;SDS011;4012;48.896;9.192;2023-07-08T02:01:37;6.33;;;4.97;;
7933;SDS011;4012;48.896;9.192;2023-07-08T02:04:03;8.03;;;4.97;;
7933;SDS011;4012;48.896;9.192;2023-07-08T02:06:28;7.93;;;4.90;;
7933;SDS011;4012;48.896;9.192;2023-07-08T02:08:54;6.57;;;5.27;;
7933;SDS011;4012;48.896;9.192;2023-07-08T02:11:23;5.83;;;4.60;;
7933;SDS011;4012;48.896;9.192;2023-07-08T02:13:49;8.00;;;4.67;;
7933;SDS011;4012;48.896;9.192;2023-07-08T02:16:14;6.43;;;4.93;;
7933;SDS011;4012;48.896;9.192;2023-07-08T02:18:40;8.43;;;4.90;;
7933;SDS011;4012;48.896;9.192;2023-07-08T02:21:05;5.70;;;4.63;;
7933;SDS011;4012;48.896;9.192;2023-07-08T02:23:31;8.13;;;4.40;;
7933;SDS011;4012;48.896;9.192;2023-07-08T02:25:56;7.00;;;5.30;;
7933;SDS011;4012;48.896;9.192;2023-07-08T02:28:22;5.97;;;4.60;;
7933;SDS011;4012;48.896;9.192;2023-07-08T02:30:48;5.90;;;5.13;;
7933;SDS011;4012;48.896;9.192;2023-07-08T02:33:13;7.27;;;4.20;;
7933;SDS011;4012;48.896;9.192;2023-07-08T02:35:42;7.40;;;4.63;;
7933;SDS011;4012;48.896;9.192;2023-07-08T02:38:08;6.23;;;4.37;;
7933;SDS011;4012;48.896;9.192;2023-07-08T02:40:34;6.40;;;4.57;;
7933;SDS011;4012;48.896;9.192;2023-07-08T02:42:59;7.00;;;5.00;;
7933;SDS011;4012;48.896;9.192;2023-07-08T02:45:25;7.00;;;4.83;;
7933;SDS011;4012;48.896;9.192;2023-07-08T02:47:50;6.40;;;4.83;;
7933;SDS011;4012;48.896;9.192;2023-07-08T02:50:16;5.80;;;4.70;;
7933;SDS011;4012;48.896;9.192;2023-07-08T02:52:43;6.13;;;4.67;;
7933;SDS011;4012;48.896;9.192;2023-07-08T02:55:09;10.13;;;5.20;;
7933;SDS011;4012;48.896;9.192;2023-07-08T02:57:35;7.97;;;4.83;;
7933;SDS011;4012;48.896;9.192;2023-07-08T03:00:00;9.23;;;4.53;;
7933;SDS011;4012;48.896;9.192;2023-07-08T03:02:29;6.60;;;4.80;;
7933;SDS011;4012;48.896;9.192;2023-07-08T03:04:55;7.77;;;4.83;;
7933;SDS011;4012;48.896;9.192;2023-07-08T03:07:24;5.50;;;4.37;;
7933;SDS011;4012;48.896;9.192;2023-07-08T03:09:49;7.33;;;4.17;;
7933;SDS011;4012;48.896;9.192;2023-07-08T03:12:15;5.40;;;4.50;;
7933;SDS011;4012;48.896;9.192;2023-07-08T03:14:41;6.87;;;4.80;;
7933;SDS011;4012;48.896;9.192;2023-07-08T03:17:06;7.10;;;5.27;;
7933;SDS011;4012;48.896;9.192;2023-07-08T03:19:32;6.20;;;4.90;;
7933;SDS011;4012;48.896;9.192;2023-07-08T03:21:58;8.00;;;5.13;;
7933;SDS011;4012;48.896;9.192;2023-07-08T03:24:24;6.53;;;5.13;;
7933;SDS011;4012;48.896;9.192;2023-07-08T03:26:49;5.87;;;4.77;;
7933;SDS011;4012;48.896;9.192;2023-07-08T03:29:19;5.60;;;4.70;;
7933;SDS011;4012;48.896;9.192;2023-07-08T03:31:45;5.97;;;4.30;;
7933;SDS011;4012;48.896;9.192;2023-07-08T03:34:11;7.83;;;5.20;;
7933;SDS011;4012;48.896;9.192;2023-07-08T03:36:42;6.87;;;5.30;;
7933;SDS011;4012;48.896;9.192;2023-07-08T03:39:14;7.60;;;5.00;;
7933;SDS011;4012;48.896;9.192;2023-07-08T03:41:41;8.80;;;5.37;;
7933;SDS011;4012;48.896;9.192;2023-07-08T03:44:06;6.87;;;4.97;;
7933;SDS011;4012;48.896;9.192;2023-07-08T03:46:32;7.57;;;5.10;;
7933;SDS011;4012;48.896;9.192;2023-07-08T03:48:57;8.40;;;5.67;;
7933;SDS011;4012;48.896;9.192;2023-07-08T03:51:27;5.67;;;4.80;;
7933;SDS011;4012;48.896;9.192;2023-07-08T03:53:56;6.70;;;4.90;;
7933;SDS011;4012;48.896;9.192;2023-07-08T03:56:22;9.43;;;4.70;;
7933;SDS011;4012;48.896;9.192;2023-07-08T03:58:48;5.63;;;4.67;;
7933;SDS011;4012;48.896;9.192;2023-07-08T04:01:16;7.77;;;5.37;;
7933;SDS011;4012;48.896;9.192;2023-07-08T04:03:44;6.57;;;4.80;;
7933;SDS011;4012;48.896;9.192;2023-07-08T04:06:10;7.57;;;5.03;;
7933;SDS011;4012;48.896;9.192;2023-07-08T04:08:35;6.47;;;5.03;;
7933;SDS011;4012;48.896;9.192;2023-07-08T04:11:01;7.30;;;4.70;;
7933;SDS011;4012;48.896;9.192;2023-07-08T04:13:27;7.83;;;5.63;;
7933;SDS011;4012;48.896;9.192;2023-07-08T04:15:54;7.37;;;5.50;;
7933;SDS011;4012;48.896;9.192;2023-07-08T04:18:22;8.00;;;5.53;;
7933;SDS011;4012;48.896;9.192;2023-07-08T04:20:48;6.37;;;5.00;;
7933;SDS011;4012;48.896;9.192;2023-07-08T04:23:17;7.53;;;4.80;;
7933;SDS011;4012;48.896;9.192;2023-07-08T04:25:43;7.53;;;5.57;;
7933;SDS011;4012;48.896;9.192;2023-07-08T04:28:09;6.50;;;5.17;;
7933;SDS011;4012;48.896;9.192;2023-07-08T04:30:35;7.03;;;5.37;;
7933;SDS011;4012;48.896;9.192;2023-07-08T04:33:06;5.83;;;4.70;;
7933;SDS011;4012;48.896;9.192;2023-07-08T04:35:39;7.50;;;5.10;;
7933;SDS011;4012;48.896;9.192;2023-07-08T04:38:06;6.57;;;5.03;;
7933;SDS011;4012;48.896;9.192;2023-07-08T04:40:39;5.87;;;4.60;;
7933;SDS011;4012;48.896;9.192;2023-07-08T04:43:07;7.17;;;4.87;;
7933;SDS011;4012;48.896;9.192;2023-07-08T04:45:39;7.70;;;5.20;;
7933;SDS011;4012;48.896;9.192;2023-07-08T04:48:07;7.80;;;6.20;;
7933;SDS011;4012;48.896;9.192;2023-07-08T04:50:44;8.63;;;4.97;;
7933;SDS011;4012;48.896;9.192;2023-07-08T04:53:11;8.97;;;5.87;;
7933;SDS011;4012;48.896;9.192;2023-07-08T04:55:41;8.03;;;5.00;;
7933;SDS011;4012;48.896;9.192;2023-07-08T04:58:09;7.70;;;5.50;;
7933;SDS011;4012;48.896;9.192;2023-07-08T05:00:34;6.53;;;5.13;;
7933;SDS011;4012;48.896;9.192;2023-07-08T05:03:00;8.73;;;5.50;;
7933;SDS011;4012;48.896;9.192;2023-07-08T05:05:26;7.50;;;5.70;;
7933;SDS011;4012;48.896;9.192;2023-07-08T05:07:52;7.93;;;5.30;;
7933;SDS011;4012;48.896;9.192;2023-07-08T05:10:18;6.97;;;5.40;;
7933;SDS011;4012;48.896;9.192;2023-07-08T05:12:45;6.30;;;5.00;;
7933;SDS011;4012;48.896;9.192;2023-07-08T05:15:11;6.37;;;4.77;;
7933;SDS011;4012;48.896;9.192;2023-07-08T05:17:41;7.80;;;4.97;;
7933;SDS011;4012;48.896;9.192;2023-07-08T05:20:07;4.77;;;4.10;;
7933;SDS011;4012;48.896;9.192;2023-07-08T05:22:35;6.27;;;4.23;;
7933;SDS011;4012;48.896;9.192;2023-07-08T05:25:01;7.17;;;4.60;;
7933;SDS011;4012;48.896;9.192;2023-07-08T05:27:27;5.00;;;4.33;;
7933;SDS011;4012;48.896;9.192;2023-07-08T05:29:52;6.27;;;4.63;;
7933;SDS011;4012;48.896;9.192;2023-07-08T05:32:18;5.93;;;4.70;;
7933;SDS011;4012;48.896;9.192;2023-07-08T05:34:44;8.03;;;4.80;;
7933;SDS011;4012;48.896;9.192;2023-07-08T05:37:13;6.77;;;4.70;;
7933;SDS011;4012;48.896;9.192;2023-07-08T05:39:39;7.00;;;4.83;;
7933;SDS011;4012;48.896;9.192;2023-07-08T05:42:05;5.93;;;4.50;;
7933;SDS011;4012;48.896;9.192;2023-07-08T05:44:31;8.90;;;4.77;;
7933;SDS011;4012;48.896;9.192;2023-07-08T05:46:56;6.23;;;4.73;;
7933;SDS011;4012;48.896;9.192;2023-07-08T05:49:22;6.10;;;4.70;;
7933;SDS011;4012;48.896;9.192;2023-07-08T05:51:48;7.53;;;5.17;;
7933;SDS011;4012;48.896;9.192;2023-07-08T05:54:14;5.43;;;4.80;;
7933;SDS011;4012;48.896;9.192;2023-07-08T05:56:39;6.80;;;5.13;;
7933;SDS011;4012;48.896;9.192;2023-07-08T05:59:05;7.47;;;5.47;;
7933;SDS011;4012;48.896;9.192;2023-07-08T06:01:31;8.80;;;5.10;;
7933;SDS011;4012;48.896;9.192;2023-07-08T06:03:57;6.43;;;5.10;;
7933;SDS011;4012;48.896;9.192;2023-07-08T06:06:26;7.87;;;5.50;;
7933;SDS011;4012;48.896;9.192;2023-07-08T06:08:52;7.33;;;5.00;;
7933;SDS011;4012;48.896;9.192;2023-07-08T06:11:18;7.70;;;4.90;;
7933;SDS011;4012;48.896;9.192;2023-07-08T06:13:44;7.53;;;5.00;;
7933;SDS011;4012;48.896;9.192;2023-07-08T06:16:09;8.47;;;5.67;;
7933;SDS011;4012;48.896;9.192;2023-07-08T06:18:35;7.17;;;5.40;;
7933;SDS011;4012;48.896;9.192;2023-07-08T06:21:01;8.13;;;5.00;;
7933;SDS011;4012;48.896;9.192;2023-07-08T06:23:27;5.87;;;4.87;;
7933;SDS011;4012;48.896;9.192;2023-07-08T06:25:53;6.77;;;5.20;;
7933;SDS011;4012;48.896;9.192;2023-07-08T06:28:19;5.93;;;5.33;;
7933;SDS011;4012;48.896;9.192;2023-07-08T06:30:45;6.97;;;5.77;;
7933;SDS011;4012;48.896;9.192;2023-07-08T06:33:11;9.60;;;6.30;;
7933;SDS011;4012;48.896;9.192;2023-07-08T06:35:46;6.17;;;5.13;;
7933;SDS011;4012;48.896;9.192;2023-07-08T06:38:12;5.93;;;5.28;;
7933;SDS011;4012;48.896;9.192;2023-07-08T06:40:37;8.43;;;6.15;;
7933;SDS011;4012;48.896;9.192;2023-07-08T06:43:03;7.82;;;5.03;;
7933;SDS011;4012;48.896;9.192;2023-07-08T06:45:29;6.57;;;5.05;;
7933;SDS011;4012;48.896;9.192;2023-07-08T06:47:54;8.00;;;5.93;;
7933;SDS011;4012;48.896;9.192;2023-07-08T06:50:20;6.18;;;5.57;;
7933;SDS011;4012;48.896;9.192;2023-07-08T06:52:45;5.70;;;5.20;;
7933;SDS011;4012;48.896;9.192;2023-07-08T06:55:11;9.77;;;5.68;;
7933;SDS011;4012;48.896;9.192;2023-07-08T06:57:38;6.30;;;5.70;;
7933;SDS011;4012;48.896;9.192;2023-07-08T07:00:04;9.50;;;5.93;;
7933;SDS011;4012;48.896;9.192;2023-07-08T07:02:32;6.53;;;5.93;;
7933;SDS011;4012;48.896;9.192;2023-07-08T07:04:58;7.07;;;5.15;;
7933;SDS011;4012;48.896;9.192;2023-07-08T07:07:24;9.25;;;5.75;;
7933;SDS011;4012;48.896;9.192;2023-07-08T07:09:49;6.80;;;4.70;;
7933;SDS011;4012;48.896;9.192;2023-07-08T07:12:15;5.47;;;4.95;;
7933;SDS011;4012;48.896;9.192;2023-07-08T07:14:41;8.85;;;5.65;;
7933;SDS011;4012;48.896;9.192;2023-07-08T07:17:06;5.90;;;5.38;;
7933;SDS011;4012;48.896;9.192;2023-07-08T07:19:32;7.05;;;5.50;;
7933;SDS011;4012;48.896;9.192;2023-07-08T07:21:58;8.27;;;5.53;;
7933;SDS011;4012;48.896;9.192;2023-07-08T07:24:23;7.40;;;5.90;;
7933;SDS011;4012;48.896;9.192;2023-07-08T07:26:49;8.40;;;7.43;;
7933;SDS011;4012;48.896;9.192;2023-07-08T07:29:16;10.23;;;5.23;;
7933;SDS011;4012;48.896;9.192;2023-07-08T07:31:42;6.60;;;5.60;;
7933;SDS011;4012;48.896;9.192;2023-07-08T07:34:08;8.37;;;5.20;;
7933;SDS011;4012;48.896;9.192;2023-07-08T07:36:35;7.77;;;5.50;;
7933;SDS011;4012;48.896;9.192;2023-07-08T07:39:01;9.27;;;5.77;;
7933;SDS011;4012;48.896;9.192;2023-07-08T07:41:26;6.03;;;4.73;;
7933;SDS011;4012;48.896;9.192;2023-07-08T07:43:52;7.37;;;5.63;;
7933;SDS011;4012;48.896;9.192;2023-07-08T07:46:18;5.70;;;5.00;;
7933;SDS011;4012;48.896;9.192;2023-07-08T07:48:43;7.83;;;5.40;;
7933;SDS011;4012;48.896;9.192;2023-07-08T07:51:09;7.33;;;5.27;;
7933;SDS011;4012;48.896;9.192;2023-07-08T07:53:36;7.63;;;5.10;;
7933;SDS011;4012;48.896;9.192;2023-07-08T07:56:02;5.23;;;4.73;;
7933;SDS011;4012;48.896;9.192;2023-07-08T07:58:29;7.90;;;4.70;;
7933;SDS011;4012;48.896;9.192;2023-07-08T08:00:55;6.13;;;4.60;;
7933;SDS011;4012;48.896;9.192;2023-07-08T08:03:21;8.53;;;5.73;;
7933;SDS011;4012;48.896;9.192;2023-07-08T08:05:48;7.33;;;4.80;;
7933;SDS011;4012;48.896;9.192;2023-07-08T08:08:14;6.10;;;4.95;;
7933;SDS011;4012;48.896;9.192;2023-07-08T08:10:40;7.10;;;4.50;;
7933;SDS011;4012;48.896;9.192;2023-07-08T08:13:08;6.88;;;4.53;;
7933;SDS011;4012;48.896;9.192;2023-07-08T08:15:34;6.32;;;4.88;;
7933;SDS011;4012;48.896;9.192;2023-07-08T08:17:59;6.30;;;5.03;;
7933;SDS011;4012;48.896;9.192;2023-07-08T08:20:25;5.28;;;4.47;;
7933;SDS011;4012;48.896;9.192;2023-07-08T08:22:51;4.57;;;4.00;;
7933;SDS011;4012;48.896;9.192;2023-07-08T08:25:18;4.82;;;4.10;;
7933;SDS011;4012;48.896;9.192;2023-07-08T08:27:45;6.25;;;4.47;;
7933;SDS011;4012;48.896;9.192;2023-07-08T08:30:11;5.07;;;4.57;;
7933;SDS011;4012;48.896;9.192;2023-07-08T08:32:37;7.38;;;5.28;;
7933;SDS011;4012;48.896;9.192;2023-07-08T08:35:03;5.47;;;4.47;;
7933;SDS011;4012;48.896;9.192;2023-07-08T08:37:29;7.18;;;4.85;;
7933;SDS011;4012;48.896;9.192;2023-07-08T08:39:55;7.85;;;5.00;;
7933;SDS011;4012;48.896;9.192;2023-07-08T08:42:28;5.18;;;4.47;;
7933;SDS011;4012;48.896;9.192;2023-07-08T08:44:59;6.68;;;4.70;;
7933;SDS011;4012;48.896;9.192;2023-07-08T08:47:31;6.03;;;4.70;;
7933;SDS011;4012;48.896;9.192;2023-07-08T08:50:26;7.18;;;4.82;;
7933;SDS011;4012;48.896;9.192;2023-07-08T08:52:58;5.85;;;4.97;;
7933;SDS011;4012;48.896;9.192;2023-07-08T08:55:26;7.82;;;4.13;;
7933;SDS011;4012;48.896;9.192;2023-07-08T09:03:34;7.05;;;4.10;;
7933;SDS011;4012;48.896;9.192;2023-07-08T09:06:11;4.65;;;3.70;;
7933;SDS011;4012;48.896;9.192;2023-07-08T09:08:39;5.40;;;3.50;;
7933;SDS011;4012;48.896;9.192;2023-07-08T09:13:58;5.40;;;4.30;;
7933;SDS011;4012;48.896;9.192;2023-07-08T09:21:59;4.80;;;3.58;;
7933;SDS011;4012;48.896;9.192;2023-07-08T09:24:42;5.78;;;4.63;;
7933;SDS011;4012;48.896;9.192;2023-07-08T09:27:21;5.25;;;4.10;;
7933;SDS011;4012;48.896;9.192;2023-07-08T09:29:47;6.35;;;3.58;;
7933;SDS011;4012;48.896;9.192;2023-07-08T09:34:46;5.25;;;4.10;;
7933;SDS011;4012;48.896;9.192;2023-07-08T09:37:26;4.57;;;3.78;;
7933;SDS011;4012;48.896;9.192;2023-07-08T09:39:54;8.80;;;4.10;;
7933;SDS011;4012;48.896;9.192;2023-07-08T09:42:21;6.30;;;3.88;;
7933;SDS011;4012;48.896;9.192;2023-07-08T09:44:56;6.43;;;4.30;;
7933;SDS011;4012;48.896;9.192;2023-07-08T09:47:24;3.72;;;3.42;;
7933;SDS011;4012;48.896;9.192;2023-07-08T09:49:56;5.07;;;3.90;;
7933;SDS011;4012;48.896;9.192;2023-07-08T09:52:23;6.03;;;4.63;;
7933;SDS011;4012;48.896;9.192;2023-07-08T09:54:50;4.75;;;3.63;;
7933;SDS011;4012;48.896;9.192;2023-07-08T09:59:57;2.25;;;2.00;;
7933;SDS011;4012;48.896;9.192;2023-07-08T10:02:26;2.08;;;1.70;;
7933;SDS011;4012;48.896;9.192;2023-07-08T10:04:52;2.35;;;1.70;;
7933;SDS011;4012;48.896;9.192;2023-07-08T10:07:22;3.13;;;1.88;;
7933;SDS011;4012;48.896;9.192;2023-07-08T10:09:49;1.65;;;1.52;;
7933;SDS011;4012;48.896;9.192;2023-07-08T10:12:18;2.05;;;1.55;;
7933;SDS011;4012;48.896;9.192;2023-07-08T10:14:50;1.75;;;1.50;;
7933;SDS011;4012;48.896;9.192;2023-07-08T10:17:21;1.88;;;1.60;;
7933;SDS011;4012;48.896;9.192;2023-07-08T10:19:47;1.60;;;1.50;;
7933;SDS011;4012;48.896;9.192;2023-07-08T10:22:24;2.03;;;1.60;;
7933;SDS011;4012;48.896;9.192;2023-07-08T10:30:46;2.85;;;1.90;;
7933;SDS011;4012;48.896;9.192;2023-07-08T10:41:32;3.38;;;2.10;;
7933;SDS011;4012;48.896;9.192;2023-07-08T10:47:23;3.38;;;2.50;;
7933;SDS011;4012;48.896;9.192;2023-07-08T10:55:58;5.82;;;2.88;;
7933;SDS011;4012;48.896;9.192;2023-07-08T11:01:29;5.57;;;3.83;;
7933;SDS011;4012;48.896;9.192;2023-07-08T11:06:55;4.70;;;3.43;;
7933;SDS011;4012;48.896;9.192;2023-07-08T11:09:48;4.40;;;3.20;;
7933;SDS011;4012;48.896;9.192;2023-07-08T11:15:13;5.53;;;3.50;;
7933;SDS011;4012;48.896;9.192;2023-07-08T11:20:37;4.40;;;3.40;;
7933;SDS011;4012;48.896;9.192;2023-07-08T11:23:29;5.63;;;3.50;;
7933;SDS011;4012;48.896;9.192;2023-07-08T11:28:49;3.60;;;3.00;;
7933;SDS011;4012;48.896;9.192;2023-07-08T11:31:18;4.73;;;3.33;;
7933;SDS011;4012;48.896;9.192;2023-07-08T11:33:45;3.93;;;2.73;;
7933;SDS011;4012;48.896;9.192;2023-07-08T11:36:11;3.70;;;2.57;;
7933;SDS011;4012;48.896;9.192;2023-07-08T11:38:46;5.37;;;2.90;;
7933;SDS011;4012;48.896;9.192;2023-07-08T11:41:20;5.57;;;3.17;;
7933;SDS011;4012;48.896;9.192;2023-07-08T11:43:49;4.20;;;2.27;;
7933;SDS011;4012;48.896;9.192;2023-07-08T11:46:23;4.03;;;2.70;;
7933;SDS011;4012;48.896;9.192;2023-07-08T11:48:56;4.07;;;2.47;;
7933;SDS011;4012;48.896;9.192;2023-07-08T11:51:30;3.53;;;2.70;;
7933;SDS011;4012;48.896;9.192;2023-07-08T11:54:00;2.83;;;2.40;;
7933;SDS011;4012;48.896;9.192;2023-07-08T11:56:46;3.77;;;2.20;;
7933;SDS011;4012;48.896;9.192;2023-07-08T11:59:37;3.93;;;2.60;;
7933;SDS011;4012;48.896;9.192;2023-07-08T12:02:04;4.47;;;2.40;;
7933;SDS011;4012;48.896;9.192;2023-07-08T12:04:57;3.07;;;2.27;;
7933;SDS011;4012;48.896;9.192;2023-07-08T12:07:47;3.70;;;2.57;;
7933;SDS011;4012;48.896;9.192;2023-07-08T12:10:16;3.97;;;2.80;;
7933;SDS011;4012;48.896;9.192;2023-07-08T12:12:53;3.80;;;3.00;;
7933;SDS011;4012;48.896;9.192;2023-07-08T12:15:23;4.47;;;2.33;;
7933;SDS011;4012;48.896;9.192;2023-07-08T12:17:53;2.70;;;2.13;;
7933;SDS011;4012;48.896;9.192;2023-07-08T12:20:25;2.40;;;1.90;;
7933;SDS011;4012;48.896;9.192;2023-07-08T12:23:02;2.70;;;2.40;;
7933;SDS011;4012;48.896;9.192;2023-07-08T12:25:33;2.40;;;1.80;;
7933;SDS011;4012;48.896;9.192;2023-07-08T12:28:00;2.43;;;1.90;;
7933;SDS011;4012;48.896;9.192;2023-07-08T12:30:27;2.30;;;2.10;;
7933;SDS011;4012;48.896;9.192;2023-07-08T12:32:55;2.73;;;2.20;;
7933;SDS011;4012;48.896;9.192;2023-07-08T12:35:28;4.70;;;1.90;;
7933;SDS011;4012;48.896;9.192;2023-07-08T12:37:57;4.53;;;3.70;;
7933;SDS011;4012;48.896;9.192;2023-07-08T12:40:26;4.33;;;2.23;;
7933;SDS011;4012;48.896;9.192;2023-07-08T12:42:52;2.20;;;2.00;;
7933;SDS011;4012;48.896;9.192;2023-07-08T12:45:20;4.10;;;2.27;;
7933;SDS011;4012;48.896;9.192;2023-07-08T12:47:47;2.30;;;2.00;;
7933;SDS011;4012;48.896;9.192;2023-07-08T12:50:14;3.43;;;2.40;;
7933;SDS011;4012;48.896;9.192;2023-07-08T12:52:42;3.07;;;1.87;;
7933;SDS011;4012;48.896;9.192;2023-07-08T12:55:10;3.00;;;2.17;;
7933;SDS011;4012;48.896;9.192;2023-07-08T12:57:37;2.40;;;1.90;;
7933;SDS011;4012;48.896;9.192;2023-07-08T13:00:05;2.87;;;1.90;;
7933;SDS011;4012;48.896;9.192;2023-07-08T13:02:31;2.50;;;2.30;;
7933;SDS011;4012;48.896;9.192;2023-07-08T13:04:59;3.30;;;2.47;;
7933;SDS011;4012;48.896;9.192;2023-07-08T13:10:03;5.37;;;2.20;;
7933;SDS011;4012;48.896;9.192;2023-07-08T13:12:31;3.43;;;2.07;;
7933;SDS011;4012;48.896;9.192;2023-07-08T13:15:00;3.27;;;2.20;;
7933;SDS011;4012;48.896;9.192;2023-07-08T13:17:29;2.53;;;2.13;;
7933;SDS011;4012;48.896;9.192;2023-07-08T13:19:55;3.73;;;1.90;;
7933;SDS011;4012;48.896;9.192;2023-07-08T13:22:22;2.80;;;2.07;;
7933;SDS011;4012;48.896;9.192;2023-07-08T13:24:58;2.70;;;2.03;;
7933;SDS011;4012;48.896;9.192;2023-07-08T13:27:27;3.33;;;2.30;;
7933;SDS011;4012;48.896;9.192;2023-07-08T13:29:54;2.40;;;2.00;;
7933;SDS011;4012;48.896;9.192;2023-07-08T13:32:39;3.37;;;2.17;;
7933;SDS011;4012;48.896;9.192;2023-07-08T13:35:19;2.60;;;1.70;;
7933;SDS011;4012;48.896;9.192;2023-07-08T13:38:05;5.60;;;2.30;;
7933;SDS011;4012;48.896;9.192;2023-07-08T13:40:30;5.03;;;2.63;;
7933;SDS011;4012;48.896;9.192;2023-07-08T13:42:56;2.60;;;2.10;;
7933;SDS011;4012;48.896;9.192;2023-07-08T13:45:23;2.40;;;2.20;;
7933;SDS011;4012;48.896;9.192;2023-07-08T13:48:01;2.93;;;2.37;;
7933;SDS011;4012;48.896;9.192;2023-07-08T13:50:40;4.97;;;3.43;;
7933;SDS011;4012;48.896;9.192;2023-07-08T13:59:09;3.03;;;2.07;;
7933;SDS011;4012;48.896;9.192;2023-07-08T14:01:44;5.50;;;2.30;;
7933;SDS011;4012;48.896;9.192;2023-07-08T14:04:10;2.97;;;2.10;;
7933;SDS011;4012;48.896;9.192;2023-07-08T14:06:40;4.43;;;2.40;;
7933;SDS011;4012;48.896;9.192;2023-07-08T14:09:09;4.67;;;2.60;;
7933;SDS011;4012;48.896;9.192;2023-07-08T14:11:44;2.10;;;1.90;;
7933;SDS011;4012;48.896;9.192;2023-07-08T14:14:10;5.37;;;2.40;;
7933;SDS011;4012;48.896;9.192;2023-07-08T14:16:41;4.00;;;3.00;;
7933;SDS011;4012;48.896;9.192;2023-07-08T14:19:30;2.47;;;1.80;;
7933;SDS011;4012;48.896;9.192;2023-07-08T14:24:40;2.43;;;2.00;;
7933;SDS011;4012;48.896;9.192;2023-07-08T14:27:10;4.03;;;2.50;;
7933;SDS011;4012;48.896;9.192;2023-07-08T14:29:40;3.77;;;2.10;;
7933;SDS011;4012;48.896;9.192;2023-07-08T14:32:13;2.80;;;1.80;;
7933;SDS011;4012;48.896;9.192;2023-07-08T14:34:48;4.83;;;2.40;;
7933;SDS011;4012;48.896;9.192;2023-07-08T14:37:17;2.47;;;2.23;;
7933;SDS011;4012;48.896;9.192;2023-07-08T14:39:43;3.53;;;2.37;;
7933;SDS011;4012;48.896;9.192;2023-07-08T14:42:13;3.10;;;2.10;;
7933;SDS011;4012;48.896;9.192;2023-07-08T14:44:42;2.97;;;2.13;;
7933;SDS011;4012;48.896;9.192;2023-07-08T14:47:10;3.80;;;2.13;;
7933;SDS011;4012;48.896;9.192;2023-07-08T14:49:37;2.70;;;2.20;;
7933;SDS011;4012;48.896;9.192;2023-07-08T14:52:03;3.77;;;2.20;;
7933;SDS011;4012;48.896;9.192;2023-07-08T14:54:29;2.73;;;2.27;;
7933;SDS011;4012;48.896;9.192;2023-07-08T14:56:55;3.73;;;1.73;;
7933;SDS011;4012;48.896;9.192;2023-07-08T14:59:22;2.20;;;1.90;;
7933;SDS011;4012;48.896;9.192;2023-07-08T15:01:51;2.77;;;1.97;;
7933;SDS011;4012;48.896;9.192;2023-07-08T15:04:18;3.10;;;2.30;;
7933;SDS011;4012;48.896;9.192;2023-07-08T15:06:45;5.70;;;2.10;;
7933;SDS011;4012;48.896;9.192;2023-07-08T15:09:11;2.53;;;1.93;;
7933;SDS011;4012;48.896;9.192;2023-07-08T15:11:39;4.33;;;1.83;;
7933;SDS011;4012;48.896;9.192;2023-07-08T15:14:09;3.47;;;2.30;;
7933;SDS011;4012;48.896;9.192;2023-07-08T15:16:48;3.87;;;2.10;;
7933;SDS011;4012;48.896;9.192;2023-07-08T15:19:15;2.90;;;2.20;;
7933;SDS011;4012;48.896;9.192;2023-07-08T15:21:41;4.67;;;2.07;;
7933;SDS011;4012;48.896;9.192;2023-07-08T15:24:11;4.93;;;2.20;;
7933;SDS011;4012;48.896;9.192;2023-07-08T15:26:38;2.90;;;2.03;;
7933;SDS011;4012;48.896;9.192;2023-07-08T15:29:06;4.30;;;2.20;;
7933;SDS011;4012;48.896;9.192;2023-07-08T15:31:47;2.50;;;2.07;;
7933;SDS011;4012;48.896;9.192;2023-07-08T15:34:21;2.33;;;2.13;;
7933;SDS011;4012;48.896;9.192;2023-07-08T15:36:47;2.73;;;2.20;;
7933;SDS011;4012;48.896;9.192;2023-07-08T15:39:13;4.20;;;2.13;;
7933;SDS011;4012;48.896;9.192;2023-07-08T15:41:40;8.20;;;2.60;;
7933;SDS011;4012;48.896;9.192;2023-07-08T15:44:15;2.77;;;2.33;;
7933;SDS011;4012;48.896;9.192;2023-07-08T15:46:45;4.13;;;2.20;;
7933;SDS011;4012;48.896;9.192;2023-07-08T15:49:23;4.20;;;2.40;;
7933;SDS011;4012;48.896;9.192;2023-07-08T15:51:52;2.43;;;2.03;;
7933;SDS011;4012;48.896;9.192;2023-07-08T15:54:18;2.80;;;2.10;;
7933;SDS011;4012;48.896;9.192;2023-07-08T15:56:44;7.83;;;2.10;;
7933;SDS011;4012;48.896;9.192;2023-07-08T15:59:20;2.83;;;2.20;;
7933;SDS011;4012;48.896;9.192;2023-07-08T16:01:49;5.53;;;2.47;;
7933;SDS011;4012;48.896;9.192;2023-07-08T16:06:46;2.10;;;1.80;;
7933;SDS011;4012;48.896;9.192;2023-07-08T16:09:12;2.43;;;1.63;;
7933;SDS011;4012;48.896;9.192;2023-07-08T16:11:38;4.50;;;2.50;;
7933;SDS011;4012;48.896;9.192;2023-07-08T16:14:04;3.73;;;2.20;;
7933;SDS011;4012;48.896;9.192;2023-07-08T16:16:29;4.17;;;2.40;;
7933;SDS011;4012;48.896;9.192;2023-07-08T16:18:55;4.23;;;3.03;;
7933;SDS011;4012;48.896;9.192;2023-07-08T16:21:20;3.33;;;2.37;;
7933;SDS011;4012;48.896;9.192;2023-07-08T16:23:46;3.70;;;2.40;;
7933;SDS011;4012;48.896;9.192;2023-07-08T16:26:13;5.53;;;2.50;;
7933;SDS011;4012;48.896;9.192;2023-07-08T16:28:41;4.83;;;2.13;;
7933;SDS011;4012;48.896;9.192;2023-07-08T16:31:12;3.40;;;2.90;;
7933;SDS011;4012;48.896;9.192;2023-07-08T16:33:39;4.20;;;2.30;;
7933;SDS011;4012;48.896;9.192;2023-07-08T16:36:08;2.67;;;1.73;;
7933;SDS011;4012;48.896;9.192;2023-07-08T16:38:39;3.57;;;2.33;;
7933;SDS011;4012;48.896;9.192;2023-07-08T16:41:08;2.37;;;2.00;;
7933;SDS011;4012;48.896;9.192;2023-07-08T16:43:38;4.07;;;2.23;;